Time;durP1;ratioP1;P1;durP2;ratioP2;P2;SDS_P1;SDS_P2;PMS_P1;PMS_P2;Temp;Humidity;BMP_temperature;BMP_pressure;BME280_temperature;BME280_humidity;BME280_pressure;Samples;Min_cycle;Max_cycle;Signal;HPM_P1;HPM_P2
2022/03/01 00:01:46;;;;;;;10.53;5.57;;;;;;;-4.72;82.42;98208.00;10456804;28;20650;-51
2022/03/01 00:06:47;;;;;;;14.40;6.20;;;;;;;-4.66;82.18;98192.56;10460388;28;20570;-53
2022/03/01 00:11:47;;;;;;;13.57;6.23;;;;;;;-4.71;82.27;98192.66;10460429;28;20296;-52
2022/03/01 00:16:48;;;;;;;14.07;6.00;;;;;;;-4.59;81.76;98166.03;10460083;28;20684;-53
2022/03/01 00:21:48;;;;;;;10.93;6.23;;;;;;;-4.61;81.28;98159.25;10460175;28;20686;-53
2022/03/01 00:26:48;;;;;;;14.57;6.27;;;;;;;-4.59;81.05;98162.66;10459713;28;20261;-53
2022/03/01 00:31:49;;;;;;;16.17;6.17;;;;;;;-4.54;81.06;98140.38;10459703;28;20226;-53
2022/03/01 00:36:50;;;;;;;16.00;6.57;;;;;;;-4.63;80.97;98149.06;10459471;28;20272;-52
2022/03/01 00:41:50;;;;;;;15.43;6.67;;;;;;;-4.57;80.93;98150.66;10459216;28;20187;-52
2022/03/01 00:46:51;;;;;;;14.97;6.33;;;;;;;-4.91;81.40;98146.16;10459222;28;20234;-51
2022/03/01 00:51:51;;;;;;;14.17;6.17;;;;;;;-5.28;83.54;98175.66;10458888;28;20219;-52
2022/03/01 00:56:51;;;;;;;13.63;6.13;;;;;;;-5.66;84.38;98178.75;10458845;28;20243;-51
2022/03/01 01:01:52;;;;;;;12.00;6.00;;;;;;;-5.55;88.89;98198.16;10458286;28;20214;-51
2022/03/01 01:06:52;;;;;;;12.00;6.17;;;;;;;-5.91;90.38;98184.16;10457811;28;20225;-53
2022/03/01 01:11:52;;;;;;;14.13;6.63;;;;;;;-5.91;92.29;98161.22;10456712;28;20229;-56
2022/03/01 01:16:53;;;;;;;17.00;7.00;;;;;;;-6.01;92.73;98149.44;10458002;28;20235;-53
2022/03/01 01:27:11;;;;;;;13.53;5.90;;;;;;;-6.60;94.59;98129.69;10457598;28;20208;-54
2022/03/01 01:32:12;;;;;;;10.97;6.03;;;;;;;-6.68;96.84;98136.56;10457392;28;20213;-54
2022/03/01 01:37:12;;;;;;;14.60;7.07;;;;;;;-6.89;99.33;98141.03;10457243;28;20639;-52
2022/03/01 01:42:13;;;;;;;10.83;6.23;;;;;;;-6.66;100.00;98145.91;10456792;28;20568;-51
2022/03/01 01:47:13;;;;;;;14.40;6.97;;;;;;;-6.94;100.00;98144.47;10456960;28;20686;-51
2022/03/01 01:52:14;;;;;;;11.40;6.70;;;;;;;-6.80;100.00;98140.06;10456439;28;20244;-54
2022/03/01 01:57:19;;;;;;;13.50;6.47;;;;;;;-6.69;100.00;98134.88;10438428;28;20244;-51
2022/03/01 02:02:21;;;;;;;11.70;6.37;;;;;;;-6.76;100.00;98120.53;10455789;28;20196;-56
2022/03/01 02:07:22;;;;;;;12.97;6.67;;;;;;;-6.82;100.00;98126.50;10455244;28;20265;-51
2022/03/01 02:12:22;;;;;;;12.20;6.73;;;;;;;-6.95;100.00;98120.69;10456051;28;20192;-51
2022/03/01 02:17:24;;;;;;;14.67;7.07;;;;;;;-6.81;100.00;98129.06;10454922;28;20209;-56
2022/03/01 02:22:31;;;;;;;13.50;7.07;;;;;;;-6.51;100.00;98114.31;10454624;28;20197;-54
2022/03/01 02:27:32;;;;;;;13.23;6.63;;;;;;;-5.92;100.00;98108.47;10454581;28;20271;-52
2022/03/01 02:32:33;;;;;;;13.13;6.10;;;;;;;-5.29;97.73;98076.91;10454612;28;20204;-51
2022/03/01 02:37:34;;;;;;;10.80;5.83;;;;;;;-5.05;92.93;98062.06;10460472;28;20212;-51
2022/03/01 02:42:35;;;;;;;9.83;4.40;;;;;;;-4.57;89.53;98041.53;10454154;28;20256;-51
2022/03/01 02:47:36;;;;;;;11.80;5.93;;;;;;;-4.54;87.32;98020.19;10454513;28;20212;-52
2022/03/01 02:52:37;;;;;;;10.13;4.93;;;;;;;-4.24;85.12;98010.19;10454223;28;20597;-53
2022/03/01 02:57:37;;;;;;;10.00;4.10;;;;;;;-4.01;82.48;97991.75;10453716;28;20239;-51
2022/03/01 03:02:37;;;;;;;10.07;5.43;;;;;;;-3.97;82.03;97978.03;10453956;28;20215;-51
2022/03/01 03:07:38;;;;;;;13.43;5.90;;;;;;;-3.79;80.10;97966.53;10452805;28;20223;-50
2022/03/01 03:12:40;;;;;;;10.87;4.37;;;;;;;-3.63;79.15;97957.59;10453606;28;20202;-51
2022/03/01 03:17:41;;;;;;;10.00;4.93;;;;;;;-3.61;78.65;97960.13;10453046;28;20708;-53
2022/03/01 03:22:41;;;;;;;12.50;6.30;;;;;;;-3.73;79.25;97966.38;10453422;28;20207;-52
2022/03/01 03:27:42;;;;;;;7.53;4.93;;;;;;;-3.60;78.74;97965.22;10452989;28;20238;-55
2022/03/01 03:32:42;;;;;;;7.73;4.00;;;;;;;-3.61;78.70;97962.69;10452690;28;20200;-51
2022/03/01 03:37:42;;;;;;;10.20;4.93;;;;;;;-3.73;79.01;97974.06;10452091;28;20269;-55
2022/03/01 03:42:44;;;;;;;15.00;6.20;;;;;;;-3.71;79.28;97974.84;10452298;28;20192;-55
2022/03/01 03:47:44;;;;;;;14.83;6.00;;;;;;;-3.75;79.35;97970.69;10452507;28;20223;-56
2022/03/01 03:52:45;;;;;;;10.13;5.37;;;;;;;-3.83;79.59;97983.69;10452354;28;20187;-52
2022/03/01 03:57:45;;;;;;;12.33;5.37;;;;;;;-3.76;79.35;97964.72;10452066;28;20259;-55
2022/03/01 04:02:48;;;;;;;10.93;5.23;;;;;;;-3.81;79.20;97971.69;10444712;28;20258;-51
2022/03/01 04:07:48;;;;;;;7.13;4.57;;;;;;;-3.84;79.82;97976.88;10410245;28;20223;-51
2022/03/01 04:12:49;;;;;;;11.40;6.47;;;;;;;-3.96;80.03;97977.16;10411244;28;20658;-52
2022/03/01 04:17:49;;;;;;;15.17;5.77;;;;;;;-3.93;79.76;97984.78;10410702;28;20221;-53
2022/03/01 04:22:50;;;;;;;11.07;4.97;;;;;;;-3.99;80.65;97997.72;10410686;28;20195;-51
2022/03/01 04:27:50;;;;;;;11.23;5.47;;;;;;;-4.02;80.53;97990.09;10410521;28;20662;-54
2022/03/01 04:32:51;;;;;;;6.87;4.10;;;;;;;-4.07;80.85;98000.44;10410200;28;20206;-51
2022/03/01 04:37:51;;;;;;;6.67;3.83;;;;;;;-3.94;80.49;97988.19;10411145;28;20282;-56
2022/03/01 04:42:51;;;;;;;12.53;5.30;;;;;;;-4.00;80.44;97981.50;10410363;28;20283;-51
2022/03/01 04:47:52;;;;;;;6.97;4.23;;;;;;;-4.05;81.17;97997.84;10414228;28;20235;-50
2022/03/01 04:52:52;;;;;;;11.00;5.27;;;;;;;-4.06;80.68;97988.47;10417617;28;20189;-51
2022/03/01 04:57:53;;;;;;;3.20;2.87;;;;;;;-4.00;80.95;97981.50;10417260;28;20231;-51
2022/03/01 05:02:53;;;;;;;8.43;4.73;;;;;;;-4.07;81.53;97992.75;10417099;28;20196;-55
2022/03/01 05:07:54;;;;;;;8.63;5.57;;;;;;;-4.18;82.39;97997.25;10416839;28;20231;-51
2022/03/01 05:12:58;;;;;;;15.47;5.40;;;;;;;-4.13;82.01;97992.91;10417062;28;20285;-50
2022/03/01 05:17:59;;;;;;;9.37;5.10;;;;;;;-4.15;82.11;97984.41;10416654;28;20212;-56
2022/03/01 05:22:59;;;;;;;6.60;4.10;;;;;;;-4.16;81.98;97988.69;10416166;28;20569;-56
2022/03/01 05:28:00;;;;;;;8.83;4.70;;;;;;;-4.14;81.87;97986.09;10415993;28;20319;-50
2022/03/01 05:33:00;;;;;;;9.17;4.97;;;;;;;-4.19;82.22;97985.38;10416506;28;20196;-51
2022/03/01 05:38:02;;;;;;;11.67;5.60;;;;;;;-4.26;83.17;97999.16;10415152;28;21065;-52
2022/03/01 05:43:03;;;;;;;9.83;5.63;;;;;;;-4.24;82.64;97984.59;10415728;28;20192;-51
2022/03/01 05:48:04;;;;;;;8.83;5.33;;;;;;;-4.20;81.77;97973.44;10398224;28;20689;-50
2022/03/01 05:53:04;;;;;;;9.10;5.00;;;;;;;-4.18;82.14;97979.34;10415156;28;20188;-50
2022/03/01 05:58:05;;;;;;;9.33;4.43;;;;;;;-4.20;82.89;97987.06;10414337;28;20315;-53
2022/03/01 06:03:05;;;;;;;10.30;5.30;;;;;;;-4.21;82.87;97987.97;10557085;23;20271;-56
2022/03/01 06:08:05;;;;;;;8.07;3.33;;;;;;;-4.07;82.45;97987.66;10538821;28;20232;-60
2022/03/01 06:13:06;;;;;;;9.30;4.30;;;;;;;-3.81;80.11;97947.81;10539229;28;20214;-60
2022/03/01 06:18:06;;;;;;;7.53;3.73;;;;;;;-3.46;77.78;97910.22;10538844;28;20197;-58
2022/03/01 06:23:06;;;;;;;7.73;3.57;;;;;;;-3.33;77.01;97913.31;10538556;28;20222;-57
2022/03/01 06:28:07;;;;;;;10.90;4.13;;;;;;;-3.26;76.26;97897.72;10520665;28;20214;-56
2022/03/01 06:33:07;;;;;;;5.30;3.03;;;;;;;-3.07;75.40;97885.22;10538169;28;20221;-56
2022/03/01 06:38:08;;;;;;;5.67;3.93;;;;;;;-3.06;74.93;97868.97;10538193;28;20532;-57
2022/03/01 06:43:08;;;;;;;6.00;3.30;;;;;;;-3.04;75.26;97889.44;10537738;28;20268;-56
2022/03/01 06:48:09;;;;;;;5.80;2.83;;;;;;;-2.92;75.17;97880.56;10537665;28;20218;-56
2022/03/01 06:53:09;;;;;;;9.13;2.63;;;;;;;-2.78;74.75;97880.16;10519446;28;20559;-58
2022/03/01 06:58:10;;;;;;;8.80;4.40;;;;;;;-2.50;74.09;97885.28;10537184;28;20198;-57
2022/03/01 07:03:11;;;;;;;7.67;4.47;;;;;;;-2.08;71.91;97840.34;10537047;28;20261;-61
2022/03/01 07:08:13;;;;;;;9.77;4.53;;;;;;;-1.33;70.46;97801.81;10536512;28;20218;-60
2022/03/01 07:13:13;;;;;;;9.27;4.77;;;;;;;-0.79;67.57;97778.38;10536806;28;20696;-60
2022/03/01 07:18:13;;;;;;;9.33;4.00;;;;;;;-0.38;65.29;97748.41;10536938;28;20197;-61
2022/03/01 07:23:14;;;;;;;7.90;4.23;;;;;;;-0.31;63.64;97727.56;10536175;28;20242;-61
2022/03/01 07:28:14;;;;;;;6.60;4.23;;;;;;;0.21;61.66;97696.16;10536435;28;20218;-58
2022/03/01 07:33:15;;;;;;;6.33;3.67;;;;;;;0.49;60.09;97667.41;10535817;28;20222;-64
2022/03/01 07:38:15;;;;;;;7.17;3.60;;;;;;;1.37;59.26;97692.50;10536190;28;20228;-63
2022/03/01 07:43:15;;;;;;;11.63;4.00;;;;;;;1.56;57.00;97645.09;10536159;28;20304;-63
2022/03/01 07:48:16;;;;;;;7.93;4.47;;;;;;;2.59;55.59;97631.09;10535628;28;20572;-62
2022/03/01 07:53:17;;;;;;;13.07;4.43;;;;;;;1.79;56.96;97669.75;10535912;28;20343;-59
2022/03/01 07:58:17;;;;;;;9.23;4.40;;;;;;;2.99;53.49;97597.84;10535351;28;20190;-62
2022/03/01 08:03:18;;;;;;;5.00;3.53;;;;;;;3.67;54.49;97658.69;10535587;28;20329;-61
2022/03/01 08:08:19;;;;;;;8.30;3.73;;;;;;;4.87;51.44;97604.66;10535040;28;20210;-61
2022/03/01 08:13:20;;;;;;;7.33;3.60;;;;;;;5.86;46.77;97504.53;10533161;28;20238;-61
2022/03/01 08:18:20;;;;;;;6.87;3.63;;;;;;;5.54;47.31;97531.81;10534826;28;20251;-59
2022/03/01 08:23:20;;;;;;;8.37;3.83;;;;;;;4.54;48.36;97535.00;10540183;28;20699;-61
2022/03/01 08:28:21;;;;;;;6.67;3.40;;;;;;;4.23;48.93;97555.91;10543330;28;20668;-61
2022/03/01 08:33:24;;;;;;;7.67;3.77;;;;;;;4.54;50.04;97610.22;10542669;28;20580;-64
2022/03/01 08:38:26;;;;;;;5.33;3.40;;;;;;;4.40;49.22;97591.16;10542819;28;20194;-64
2022/03/01 08:43:26;;;;;;;6.33;3.63;;;;;;;3.81;50.42;97613.81;10542987;28;20217;-64
2022/03/01 08:48:26;;;;;;;6.47;3.43;;;;;;;3.50;51.25;97644.97;10543563;28;20249;-64
2022/03/01 08:53:27;;;;;;;7.53;3.43;;;;;;;3.60;50.40;97608.16;10542272;28;20218;-64
2022/03/01 08:58:27;;;;;;;5.17;3.30;;;;;;;3.24;51.91;97638.69;10542391;28;20182;-63
2022/03/01 09:03:28;;;;;;;9.13;3.77;;;;;;;3.46;50.33;97612.41;10541812;28;20230;-62
2022/03/01 09:08:28;;;;;;;9.80;3.97;;;;;;;3.72;49.19;97584.94;10541038;28;20222;-64
2022/03/01 09:13:29;;;;;;;10.77;3.67;;;;;;;3.60;51.23;97640.09;10541275;28;20208;-63
2022/03/01 09:18:29;;;;;;;5.20;2.87;;;;;;;3.56;49.07;97582.41;10540698;28;20560;-62
2022/03/01 09:23:30;;;;;;;4.07;2.90;;;;;;;3.56;49.56;97584.19;10540749;28;20862;-61
2022/03/01 09:28:30;;;;;;;4.40;2.60;;;;;;;3.25;50.05;97588.59;10540425;28;20595;-63
2022/03/01 09:33:31;;;;;;;4.20;2.40;;;;;;;2.78;51.21;97610.25;10539457;28;20195;-62
2022/03/01 09:38:31;;;;;;;5.53;3.50;;;;;;;3.64;49.99;97584.56;10540734;28;20201;-62
2022/03/01 09:43:36;;;;;;;5.30;3.13;;;;;;;3.42;50.84;97608.31;10540102;28;20222;-63
2022/03/01 09:48:37;;;;;;;3.10;2.57;;;;;;;2.75;50.96;97575.00;10540229;28;20264;-60
2022/03/01 09:53:40;;;;;;;6.43;3.43;;;;;;;3.11;50.76;97575.59;10539724;28;20194;-62
2022/03/01 09:58:44;;;;;;;6.33;3.50;;;;;;;2.97;50.19;97563.44;10521300;28;20186;-60
2022/03/01 10:03:49;;;;;;;9.43;3.40;;;;;;;3.92;49.40;97572.53;10539574;28;20225;-60
2022/03/01 10:08:57;;;;;;;6.20;3.47;;;;;;;4.22;49.56;97569.81;10539391;28;20226;-62
2022/03/01 10:13:58;;;;;;;9.60;3.70;;;;;;;4.61;47.56;97529.31;10539245;28;20190;-61
2022/03/01 10:19:00;;;;;;;5.67;3.23;;;;;;;4.62;47.49;97520.59;10538708;28;20199;-62
2022/03/01 10:24:00;;;;;;;5.20;2.60;;;;;;;5.15;46.09;97491.19;10538461;28;20195;-62
2022/03/01 10:29:00;;;;;;;5.80;3.17;;;;;;;5.82;44.13;97451.06;10538086;28;20272;-62
2022/03/01 10:34:04;;;;;;;3.67;2.83;;;;;;;6.76;42.38;97426.09;10538423;28;20248;-61
2022/03/01 10:39:10;;;;;;;6.10;3.07;;;;;;;5.98;42.45;97406.66;10538041;28;20206;-61
2022/03/01 10:44:20;;;;;;;4.27;2.67;;;;;;;6.88;38.71;97312.38;10537128;28;20233;-60
2022/03/01 10:49:22;;;;;;;4.23;2.50;;;;;;;6.10;40.95;97360.72;10537429;28;20218;-63
2022/03/01 10:54:36;;;;;;;4.63;2.90;;;;;;;4.90;41.47;97331.88;10537339;28;20195;-63
2022/03/01 10:59:39;;;;;;;8.23;2.70;;;;;;;5.34;42.09;97377.28;10537596;28;20241;-57
2022/03/01 11:04:39;;;;;;;4.07;2.07;;;;;;;6.23;41.39;97384.88;10536444;28;20201;-58
2022/03/01 11:09:40;;;;;;;3.97;2.80;;;;;;;6.19;41.15;97367.84;10537041;28;20235;-61
2022/03/01 11:15:01;;;;;;;9.00;3.00;;;;;;;5.51;42.42;97364.88;10536475;28;20182;-57
2022/03/01 11:20:04;;;;;;;7.20;2.93;;;;;;;6.22;42.09;97388.44;10536247;28;20214;-57
2022/03/01 11:25:05;;;;;;;5.60;2.77;;;;;;;6.72;41.20;97375.19;10536321;28;20199;-59
2022/03/01 11:30:08;;;;;;;4.60;3.20;;;;;;;6.29;40.35;97319.38;10536181;28;20732;-59
2022/03/01 11:35:16;;;;;;;6.57;3.40;;;;;;;7.13;39.91;97319.09;10535676;28;20212;-57
2022/03/01 11:40:23;;;;;;;5.07;2.60;;;;;;;7.53;37.28;97271.63;10535476;28;20207;-59
2022/03/01 11:45:32;;;;;;;4.47;3.10;;;;;;;6.11;40.07;97284.31;10536085;28;20186;-61
2022/03/01 11:50:33;;;;;;;5.00;2.93;;;;;;;6.25;38.52;97248.53;10535653;28;20222;-56
2022/03/01 11:55:39;;;;;;;9.43;3.30;;;;;;;6.96;37.93;97231.84;10535389;28;20395;-62
2022/03/01 12:00:40;;;;;;;5.10;2.87;;;;;;;9.08;34.50;97197.75;10553276;22;20385;-63
2022/03/01 12:05:45;;;;;;;4.37;2.73;;;;;;;10.97;34.09;97230.38;10493587;28;20214;-64
2022/03/01 12:10:57;;;;;;;4.70;2.70;;;;;;;11.46;31.16;97159.25;10475766;28;20226;-64
2022/03/01 12:15:58;;;;;;;6.53;3.97;;;;;;;9.15;38.10;97318.25;10493092;28;20191;-63
2022/03/01 12:21:03;;;;;;;4.00;3.10;;;;;;;8.83;38.78;97334.91;10492434;28;20238;-63
2022/03/01 12:26:05;;;;;;;4.57;3.20;;;;;;;8.25;39.98;97340.56;10492849;28;20248;-64
2022/03/01 12:31:14;;;;;;;7.93;3.80;;;;;;;6.81;40.45;97290.34;10492550;28;20705;-63
2022/03/01 12:36:24;;;;;;;8.63;3.60;;;;;;;8.91;38.47;97332.50;10493298;28;20187;-63
2022/03/01 12:41:24;;;;;;;7.27;3.57;;;;;;;9.87;35.93;97250.91;10492627;28;20218;-63
2022/03/01 12:46:27;;;;;;;8.80;3.50;;;;;;;12.81;35.11;97308.59;10492484;28;20266;-65
2022/03/01 12:51:28;;;;;;;5.23;3.43;;;;;;;11.33;34.09;97218.16;10487763;28;20229;-63
2022/03/01 12:56:31;;;;;;;6.83;3.67;;;;;;;11.70;33.44;97208.47;10483461;28;20662;-64
2022/03/01 13:01:32;;;;;;;6.60;3.85;;;;;;;13.88;32.24;97243.19;10487773;28;20227;-64
2022/03/01 13:06:33;;;;;;;8.55;3.42;;;;;;;13.93;30.30;97168.13;10489952;28;20251;-64
2022/03/01 13:11:34;;;;;;;6.57;3.35;;;;;;;15.66;29.69;97190.13;10494947;28;20694;-64
2022/03/01 13:16:42;;;;;;;7.72;3.63;;;;;;;12.74;31.50;97162.16;10496502;28;20191;-63
2022/03/01 13:21:47;;;;;;;5.70;2.90;;;;;;;13.94;30.09;97152.16;10494254;28;20574;-64
2022/03/01 13:26:49;;;;;;;9.57;3.97;;;;;;;10.33;32.51;97131.50;10496350;28;20187;-64
2022/03/01 13:32:01;;;;;;;7.55;2.80;;;;;;;11.68;32.67;97194.69;10495355;28;20958;-64
2022/03/01 13:37:09;;;;;;;5.18;3.65;;;;;;;10.52;33.92;97187.41;10495070;28;20260;-64
2022/03/01 13:42:12;;;;;;;4.93;3.00;;;;;;;7.70;36.29;97165.13;10495548;28;20209;-65
2022/03/01 13:47:14;;;;;;;5.07;3.13;;;;;;;10.28;34.27;97221.94;10492234;28;20759;-64
2022/03/01 13:52:16;;;;;;;5.87;3.07;;;;;;;12.23;32.33;97217.28;10496157;28;20292;-65
2022/03/01 13:57:29;;;;;;;7.05;2.80;;;;;;;14.06;29.99;97185.06;10496443;28;20221;-64
2022/03/01 14:02:30;;;;;;;3.65;2.88;;;;;;;13.70;28.44;97097.69;10495698;28;20247;-65
2022/03/01 14:07:31;;;;;;;4.82;3.00;;;;;;;13.88;27.94;97068.53;10495165;28;20191;-64
2022/03/01 14:12:40;;;;;;;6.07;2.85;;;;;;;12.42;28.76;97030.50;10495691;28;20589;-64
2022/03/01 14:17:41;;;;;;;5.68;3.00;;;;;;;12.69;29.21;97078.53;10495306;28;20215;-66
2022/03/01 14:22:41;;;;;;;5.45;3.35;;;;;;;11.91;30.12;97071.63;10495000;28;20243;-66
2022/03/01 14:27:41;;;;;;;5.07;3.35;;;;;;;14.46;28.53;97129.78;10494478;28;20252;-65
2022/03/01 14:32:42;;;;;;;6.22;3.25;;;;;;;15.75;27.71;97132.78;10494689;28;20769;-66
2022/03/01 14:37:43;;;;;;;3.95;3.05;;;;;;;13.09;28.61;97034.84;10494144;28;20317;-65
2022/03/01 14:42:43;;;;;;;6.40;3.83;;;;;;;13.66;29.59;97122.69;10493074;28;20842;-64
2022/03/01 14:47:44;;;;;;;6.85;3.08;;;;;;;10.85;30.39;97043.66;10505650;28;20550;-64
2022/03/01 14:52:44;;;;;;;5.40;3.45;;;;;;;13.07;31.13;97152.56;10495868;28;20222;-64
2022/03/01 14:57:45;;;;;;;8.10;4.00;;;;;;;13.81;31.19;97178.16;10493937;28;20187;-65
2022/03/01 15:02:45;;;;;;;9.43;4.07;;;;;;;14.74;31.09;97205.84;10492573;28;20239;-64
2022/03/01 15:07:46;;;;;;;9.13;4.10;;;;;;;11.33;33.22;97144.72;10492358;28;20199;-64
2022/03/01 15:12:49;;;;;;;8.25;4.90;;;;;;;13.98;32.41;97237.75;10492422;28;20705;-64
2022/03/01 15:17:49;;;;;;;9.02;5.75;;;;;;;12.65;33.13;97201.56;10492812;28;20195;-64
2022/03/01 15:22:50;;;;;;;8.73;4.90;;;;;;;9.79;36.37;97198.47;10493509;28;20662;-64
2022/03/01 15:27:50;;;;;;;10.23;5.33;;;;;;;12.28;35.54;97285.94;10492553;28;20191;-65
2022/03/01 15:32:51;;;;;;;11.37;5.77;;;;;;;12.45;35.23;97253.53;10491676;28;20207;-65
2022/03/01 15:37:51;;;;;;;9.88;5.68;;;;;;;13.60;32.08;97191.81;10492848;28;20237;-64
2022/03/01 15:42:51;;;;;;;9.20;5.00;;;;;;;12.56;34.86;97254.28;10490933;28;20219;-64
2022/03/01 15:47:53;;;;;;;9.25;6.32;;;;;;;10.15;37.93;97277.19;10492630;28;20673;-63
2022/03/01 15:52:53;;;;;;;12.90;6.80;;;;;;;7.11;41.85;97300.16;10492573;28;20216;-64
2022/03/01 15:57:53;;;;;;;10.63;6.53;;;;;;;5.87;44.53;97374.41;10492705;28;20187;-65
2022/03/01 16:02:54;;;;;;;10.27;5.87;;;;;;;4.42;48.65;97463.94;10491913;28;21039;-64
2022/03/01 16:07:54;;;;;;;10.60;5.47;;;;;;;4.39;49.75;97503.06;10491780;28;20203;-64
2022/03/01 16:12:55;;;;;;;12.33;6.00;;;;;;;3.39;54.93;97624.03;10492438;28;20223;-64
2022/03/01 16:17:55;;;;;;;10.80;5.27;;;;;;;3.21;56.06;97644.06;10490360;28;20222;-63
2022/03/01 16:22:56;;;;;;;8.83;4.90;;;;;;;2.65;57.02;97635.97;10492333;28;20211;-64
2022/03/01 16:27:56;;;;;;;11.50;6.27;;;;;;;2.47;58.23;97654.13;10491202;28;20191;-64
2022/03/01 16:32:57;;;;;;;12.23;5.67;;;;;;;2.27;58.67;97646.63;10491713;28;20211;-65
2022/03/01 16:37:57;;;;;;;10.83;5.47;;;;;;;1.55;61.16;97689.94;10476098;28;20201;-62
2022/03/01 16:42:57;;;;;;;11.13;5.43;;;;;;;1.50;61.96;97700.47;10494071;28;20317;-61
2022/03/01 16:47:58;;;;;;;14.57;5.87;;;;;;;0.95;62.36;97680.75;10501775;28;20728;-62
2022/03/01 16:52:58;;;;;;;9.23;5.10;;;;;;;0.94;63.21;97697.13;10506532;28;20706;-63
2022/03/01 16:58:00;;;;;;;11.20;6.03;;;;;;;0.74;63.91;97694.66;10507252;28;21635;-64
2022/03/01 17:03:02;;;;;;;13.47;7.30;;;;;;;0.06;66.08;97731.16;10503979;28;20639;-63
2022/03/01 17:08:03;;;;;;;20.50;10.63;;;;;;;-0.15;67.00;97727.75;10508473;28;20184;-63
2022/03/01 17:13:04;;;;;;;15.67;7.17;;;;;;;-0.25;66.97;97712.69;10498174;28;20670;-63
2022/03/01 17:18:04;;;;;;;17.90;7.03;;;;;;;-0.10;66.21;97697.50;10497243;28;20206;-63
2022/03/01 17:23:07;;;;;;;12.90;6.63;;;;;;;-0.21;66.92;97698.78;10497132;28;20215;-63
2022/03/01 17:28:08;;;;;;;20.07;10.20;;;;;;;-0.40;68.20;97713.34;10497292;28;20215;-62
2022/03/01 17:33:09;;;;;;;14.80;7.13;;;;;;;-0.52;68.50;97709.56;10488810;28;20211;-63
2022/03/01 17:38:09;;;;;;;20.33;10.37;;;;;;;-0.74;69.08;97707.00;10499363;28;20665;-63
2022/03/01 17:43:10;;;;;;;15.37;6.57;;;;;;;-0.84;70.20;97718.53;10498141;28;20302;-63
2022/03/01 17:48:10;;;;;;;17.87;7.60;;;;;;;-0.90;70.64;97725.63;10496086;28;20248;-63
2022/03/01 17:53:11;;;;;;;13.80;7.53;;;;;;;-1.24;72.17;97745.81;10496959;28;20633;-63
2022/03/01 17:58:11;;;;;;;16.13;8.27;;;;;;;-1.32;72.48;97739.25;10497772;28;20191;-63
2022/03/01 18:03:11;;;;;;;19.83;8.37;;;;;;;-1.41;73.26;97742.13;10544493;22;20720;-61
2022/03/01 18:08:12;;;;;;;21.57;10.13;;;;;;;-1.64;74.53;97742.97;10539418;28;20217;-58
2022/03/01 18:13:13;;;;;;;22.77;10.53;;;;;;;-1.78;75.95;97750.34;10539119;28;20241;-57
2022/03/01 18:18:13;;;;;;;23.10;9.97;;;;;;;-1.99;77.57;97745.03;10538826;28;20214;-56
2022/03/01 18:23:14;;;;;;;20.90;9.93;;;;;;;-2.14;78.00;97749.00;10538064;28;20222;-59
2022/03/01 18:28:14;;;;;;;22.80;10.23;;;;;;;-2.16;78.20;97738.78;10537589;28;20218;-60
2022/03/01 18:33:15;;;;;;;15.50;7.57;;;;;;;-2.24;79.21;97748.44;10535636;28;20218;-54
2022/03/01 18:38:16;;;;;;;17.33;8.57;;;;;;;-2.41;81.21;97749.03;10533480;28;20189;-60
2022/03/01 18:43:16;;;;;;;19.40;8.07;;;;;;;-2.53;81.88;97728.91;10537536;28;20297;-58
2022/03/01 18:48:17;;;;;;;22.00;8.93;;;;;;;-2.49;81.87;97730.47;10536391;28;20207;-61
2022/03/01 18:53:18;;;;;;;18.00;9.13;;;;;;;-2.61;83.21;97718.06;10537007;28;20212;-62
2022/03/01 18:58:22;;;;;;;15.97;8.37;;;;;;;-2.63;83.12;97710.41;10537153;28;20691;-56
2022/03/01 19:03:23;;;;;;;17.37;9.17;;;;;;;-2.60;83.37;97696.66;10536369;28;20299;-55
2022/03/01 19:08:23;;;;;;;34.90;11.77;;;;;;;-2.64;83.24;97684.81;10536636;28;20235;-62
2022/03/01 19:13:25;;;;;;;19.70;8.40;;;;;;;-2.62;83.06;97675.34;10536293;28;20215;-59
2022/03/01 19:18:25;;;;;;;15.90;8.20;;;;;;;-2.71;84.10;97681.59;10536422;28;20213;-60
2022/03/01 19:23:25;;;;;;;16.40;8.87;;;;;;;-2.73;83.39;97676.53;10536122;28;20214;-61
2022/03/01 19:28:26;;;;;;;18.47;7.30;;;;;;;-2.77;84.03;97674.09;10536278;28;20711;-62
2022/03/01 19:33:26;;;;;;;20.13;8.50;;;;;;;-2.80;83.70;97671.66;10535766;28;20210;-62
2022/03/01 19:38:27;;;;;;;11.93;6.70;;;;;;;-2.75;83.25;97662.91;10535415;28;20186;-59
2022/03/01 19:43:27;;;;;;;14.47;6.60;;;;;;;-2.64;82.54;97659.16;10535907;28;20768;-59
2022/03/01 19:48:27;;;;;;;15.77;7.80;;;;;;;-2.89;83.44;97685.63;10535251;28;20677;-59
2022/03/01 19:53:28;;;;;;;18.90;7.70;;;;;;;-2.87;83.44;97686.41;10535018;28;20814;-58
2022/03/01 19:58:28;;;;;;;15.20;7.30;;;;;;;-2.94;84.05;97685.78;10535193;28;20193;-62
2022/03/01 20:03:29;;;;;;;13.47;6.83;;;;;;;-3.05;84.77;97690.38;10534666;28;20249;-59
2022/03/01 20:08:30;;;;;;;17.00;8.30;;;;;;;-2.99;84.20;97674.81;10534915;28;20222;-56
2022/03/01 20:13:31;;;;;;;14.33;7.10;;;;;;;-2.95;83.69;97678.13;10534339;28;20206;-59
2022/03/01 20:18:31;;;;;;;16.30;7.90;;;;;;;-3.01;84.53;97676.59;10538855;28;20221;-61
2022/03/01 20:23:33;;;;;;;16.83;8.50;;;;;;;-3.00;84.04;97667.16;10542936;28;20210;-58
2022/03/01 20:28:33;;;;;;;12.00;6.73;;;;;;;-3.08;84.64;97678.53;10542294;28;20214;-57
2022/03/01 20:33:34;;;;;;;15.30;7.20;;;;;;;-3.09;84.81;97669.16;10541548;28;20214;-61
2022/03/01 20:38:35;;;;;;;16.47;7.43;;;;;;;-3.29;86.08;97680.00;10541218;28;20652;-58
2022/03/01 20:43:37;;;;;;;16.40;7.77;;;;;;;-3.14;85.28;97667.59;10542114;28;20307;-60
2022/03/01 20:48:37;;;;;;;14.93;7.87;;;;;;;-3.09;84.80;97665.75;10542012;28;20213;-60
2022/03/01 20:53:40;;;;;;;15.87;7.67;;;;;;;-3.15;85.48;97668.50;10541824;28;20571;-59
2022/03/01 20:58:40;;;;;;;17.53;7.60;;;;;;;-3.24;85.71;97665.31;10541777;28;20205;-59
2022/03/01 21:03:40;;;;;;;15.83;6.93;;;;;;;-3.25;86.13;97656.00;10541207;28;20244;-58
2022/03/01 21:08:42;;;;;;;12.50;7.70;;;;;;;-3.27;86.16;97667.16;10541355;28;20917;-61
2022/03/01 21:13:42;;;;;;;17.33;8.27;;;;;;;-3.21;86.02;97659.28;10540999;28;20221;-55
2022/03/01 21:18:42;;;;;;;12.00;5.90;;;;;;;-3.09;85.24;97627.31;10541960;28;20284;-56
2022/03/01 21:23:43;;;;;;;6.97;3.33;;;;;;;-3.38;86.50;97639.31;10540274;28;20211;-59
2022/03/01 21:28:43;;;;;;;13.10;6.53;;;;;;;-3.52;87.99;97646.56;10540001;28;20260;-60
2022/03/01 21:33:44;;;;;;;13.07;6.83;;;;;;;-3.52;88.17;97654.25;10540431;28;20218;-59
2022/03/01 21:38:44;;;;;;;14.37;7.30;;;;;;;-3.49;87.99;97654.16;10540049;28;20554;-60
2022/03/01 21:43:45;;;;;;;16.33;7.57;;;;;;;-3.51;87.81;97649.06;10539541;28;20241;-60
2022/03/01 21:48:45;;;;;;;15.87;7.40;;;;;;;-3.42;87.85;97651.34;10539157;28;20275;-61
2022/03/01 21:53:45;;;;;;;16.70;8.10;;;;;;;-3.41;87.98;97647.09;10534008;28;20321;-57
2022/03/01 21:58:46;;;;;;;15.17;7.17;;;;;;;-3.42;87.98;97632.59;10537625;28;20190;-59
2022/03/01 22:03:46;;;;;;;9.97;5.70;;;;;;;-3.33;87.23;97626.34;10539267;28;20315;-61
2022/03/01 22:08:46;;;;;;;13.20;6.97;;;;;;;-3.39;87.29;97639.34;10539159;28;20217;-60
2022/03/01 22:13:47;;;;;;;14.43;7.93;;;;;;;-3.36;87.25;97637.53;10539084;28;20241;-54
2022/03/01 22:18:47;;;;;;;17.47;6.93;;;;;;;-3.27;86.60;97618.47;10539234;28;20212;-59
2022/03/01 22:23:47;;;;;;;15.17;7.00;;;;;;;-3.30;86.22;97627.09;10538982;28;20210;-59
2022/03/01 22:28:48;;;;;;;16.17;7.40;;;;;;;-3.35;87.29;97633.22;10538466;28;20228;-60
2022/03/01 22:33:49;;;;;;;15.57;8.13;;;;;;;-3.64;88.13;97634.97;10538589;28;20300;-61
2022/03/01 22:38:49;;;;;;;17.17;6.97;;;;;;;-3.60;88.78;97631.44;10538357;28;20345;-60
2022/03/01 22:43:50;;;;;;;22.70;7.73;;;;;;;-3.52;88.17;97621.81;10537801;28;20563;-58
2022/03/01 22:48:51;;;;;;;18.40;9.37;;;;;;;-3.85;89.68;97634.72;10538064;28;20218;-58
2022/03/01 22:53:52;;;;;;;16.33;9.20;;;;;;;-3.80;90.25;97637.16;10537533;28;20264;-59
2022/03/01 22:58:52;;;;;;;18.33;7.90;;;;;;;-3.65;89.91;97630.75;10537645;28;20197;-57
2022/03/01 23:04:01;;;;;;;10.73;6.13;;;;;;;-3.63;88.92;97622.13;10536308;28;20609;-57
2022/03/01 23:09:02;;;;;;;14.50;7.33;;;;;;;-3.67;88.86;97614.59;10535950;28;20226;-61
2022/03/01 23:14:02;;;;;;;18.37;9.07;;;;;;;-3.61;88.67;97602.44;10535837;28;20269;-59
2022/03/01 23:19:03;;;;;;;18.10;8.57;;;;;;;-3.65;88.43;97613.63;10536115;28;20183;-61